Time;durP1;ratioP1;P1;durP2;ratioP2;P2;SDS_P1;SDS_P2;PMS_P1;PMS_P2;Temp;Humidity;BMP_temperature;BMP_pressure;BME280_temperature;BME280_humidity;BME280_pressure;Samples;Min_cycle;Max_cycle;Signal;HPM_P1;HPM_P2
2022/06/23 00:00:29;;;;;;;7.75;6.53;;;;;;;18.56;61.56;101160.44;4913797;28;120575;-81
2022/06/23 00:02:58;;;;;;;8.10;6.10;;;;;;;18.50;61.78;101154.84;4915888;28;119676;-81
2022/06/23 00:05:27;;;;;;;13.20;9.38;;;;;;;18.54;61.93;101162.94;4916542;28;119740;-81
2022/06/23 00:07:56;;;;;;;7.80;6.30;;;;;;;18.56;62.02;101163.97;4915698;28;120002;-81
2022/06/23 00:10:25;;;;;;;7.15;5.63;;;;;;;18.56;62.18;101166.75;4882464;28;119954;-81
2022/06/23 00:12:52;;;;;;;9.23;6.40;;;;;;;18.49;62.21;101161.66;4898714;28;122016;-81
2022/06/23 00:15:35;;;;;;;7.22;6.15;;;;;;;18.56;62.16;101171.53;4915433;28;120015;-81
2022/06/23 00:18:04;;;;;;;7.30;6.25;;;;;;;18.46;62.56;101154.31;4914999;28;119985;-81
2022/06/23 00:20:39;;;;;;;7.10;6.38;;;;;;;18.57;62.39;101167.50;4912270;28;119816;-81
2022/06/23 00:23:12;;;;;;;6.82;6.22;;;;;;;18.57;62.71;101159.94;4913530;28;119913;-80
2022/06/23 00:25:44;;;;;;;9.30;7.35;;;;;;;18.57;62.40;101162.72;4913903;28;119622;-81
2022/06/23 00:28:23;;;;;;;8.27;7.43;;;;;;;18.54;62.67;101157.38;4917724;28;120174;-81
2022/06/23 00:31:29;;;;;;;8.63;7.43;;;;;;;18.55;62.45;101153.34;4912871;28;118784;-81
2022/06/23 00:34:01;;;;;;;9.93;8.50;;;;;;;18.51;63.05;101141.72;4895544;28;121781;-82
2022/06/23 00:36:41;;;;;;;14.40;12.20;;;;;;;18.56;62.17;101157.66;4911098;28;119912;-81
2022/06/23 00:39:27;;;;;;;13.77;12.35;;;;;;;18.54;62.55;101141.47;4896879;28;120579;-81
2022/06/23 00:41:54;;;;;;;18.25;15.57;;;;;;;18.50;62.77;101149.28;4893805;28;121312;-81
2022/06/23 00:44:34;;;;;;;16.67;15.07;;;;;;;18.51;62.67;101150.03;4911145;28;119694;-81
2022/06/23 00:47:06;;;;;;;19.65;16.35;;;;;;;18.41;62.46;101135.56;4914286;28;119515;-81
2022/06/23 00:50:15;;;;;;;17.15;15.40;;;;;;;18.49;62.45;101158.88;4914097;28;119781;-81
2022/06/23 00:52:47;;;;;;;19.40;17.40;;;;;;;18.45;62.80;101149.22;4898924;28;119452;-81
2022/06/23 00:55:24;;;;;;;23.00;20.42;;;;;;;18.50;62.94;101159.63;4911329;28;119753;-81
2022/06/23 00:57:56;;;;;;;23.25;20.77;;;;;;;18.45;62.99;101154.78;4913116;28;119546;-81
2022/06/23 01:00:36;;;;;;;23.08;20.65;;;;;;;18.44;62.19;101161.59;4897623;28;121273;-81
2022/06/23 01:03:29;;;;;;;24.30;21.70;;;;;;;18.44;61.98;101161.59;4896516;28;120417;-81
2022/06/23 01:06:19;;;;;;;25.15;22.50;;;;;;;18.41;62.73;101158.53;4889705;28;120100;-81
2022/06/23 01:09:04;;;;;;;26.17;23.38;;;;;;;18.44;62.71;101167.16;4916105;28;119583;-81
2022/06/23 01:12:16;;;;;;;24.38;21.77;;;;;;;18.39;62.66;101174.19;4880870;28;119356;-80
2022/06/23 01:14:53;;;;;;;21.27;18.98;;;;;;;18.37;62.70;101171.91;4915689;28;119346;-81
2022/06/23 01:17:25;;;;;;;19.17;17.02;;;;;;;18.39;63.00;101172.16;4919519;28;120180;-81
2022/06/23 01:20:20;;;;;;;16.48;14.77;;;;;;;18.38;61.62;101173.41;4896563;28;119781;-81
2022/06/23 01:22:48;;;;;;;15.52;13.85;;;;;;;18.34;61.72;101172.88;4914876;28;119769;-81
2022/06/23 01:25:23;;;;;;;15.30;13.80;;;;;;;18.32;61.00;101180.94;4914500;28;121018;-81
2022/06/23 01:28:03;;;;;;;14.68;13.18;;;;;;;18.27;61.21;101178.13;4907062;28;119532;-81
2022/06/23 01:30:37;;;;;;;15.25;13.75;;;;;;;18.26;61.96;101194.03;4910454;28;120073;-81
2022/06/23 01:33:14;;;;;;;14.73;13.18;;;;;;;18.27;62.47;101192.03;4913157;28;120031;-81
2022/06/23 01:36:32;;;;;;;14.90;13.27;;;;;;;18.25;61.64;101192.50;4880728;28;119448;-81
2022/06/23 01:39:00;;;;;;;18.83;16.83;;;;;;;18.29;62.21;101200.63;4920220;28;119532;-81
2022/06/23 01:41:48;;;;;;;18.65;16.70;;;;;;;18.24;62.87;101185.44;4908972;28;119718;-81
2022/06/23 01:45:05;;;;;;;18.85;16.75;;;;;;;18.30;63.40;101191.03;4872122;28;118904;-81
2022/06/23 01:47:36;;;;;;;19.30;17.30;;;;;;;18.30;63.35;101194.56;4903001;28;119725;-81
2022/06/23 01:50:41;;;;;;;16.25;14.65;;;;;;;18.24;62.91;101181.91;4896868;28;119291;-81
2022/06/23 01:53:13;;;;;;;16.45;14.73;;;;;;;18.31;63.06;101192.56;4876061;28;119853;-81
2022/06/23 01:55:59;;;;;;;15.52;13.82;;;;;;;18.29;62.81;101193.06;4900793;28;119796;-81
2022/06/23 01:58:51;;;;;;;15.32;12.88;;;;;;;18.29;63.16;101187.50;4907891;28;119693;-80
2022/06/23 02:01:26;;;;;;;16.65;15.00;;;;;;;18.29;62.73;101201.38;4900873;28;119694;-82
2022/06/23 02:04:09;;;;;;;15.68;14.10;;;;;;;18.28;63.18;101191.53;4910221;28;119736;-81
2022/06/23 02:06:57;;;;;;;17.97;13.47;;;;;;;18.28;62.97;101191.53;4900763;28;119631;-81
2022/06/23 02:09:25;;;;;;;15.93;14.25;;;;;;;18.28;62.79;101191.53;4913175;28;119709;-80
2022/06/23 02:11:52;;;;;;;18.38;16.48;;;;;;;18.27;62.73;101198.34;4907359;28;119672;-81
2022/06/23 02:14:56;;;;;;;18.17;16.38;;;;;;;18.21;62.57;101186.41;4911307;28;119852;-81
2022/06/23 02:17:28;;;;;;;16.33;14.63;;;;;;;18.15;62.22;101185.59;4899624;28;120406;-81
2022/06/23 02:19:58;;;;;;;14.95;13.40;;;;;;;18.20;62.57;101195.97;4899106;28;119554;-82
2022/06/23 02:22:40;;;;;;;16.13;14.38;;;;;;;18.19;63.16;101197.22;4884479;28;120501;-80
2022/06/23 02:25:11;;;;;;;15.50;13.90;;;;;;;18.21;63.03;101208.59;4898906;28;120778;-81
2022/06/23 02:28:05;;;;;;;16.00;14.00;;;;;;;18.16;63.24;101203.00;4917748;28;119790;-81
2022/06/23 02:31:03;;;;;;;14.90;13.50;;;;;;;18.13;63.31;101204.00;4910896;28;120372;-82
2022/06/23 02:33:44;;;;;;;;;;;;;;;18.15;63.12;101205.03;4913046;28;120011;-81
2022/06/23 02:36:29;;;;;;;15.65;14.05;;;;;;;18.11;63.22;101198.94;4913815;28;120077;-80
2022/06/23 02:38:59;;;;;;;17.15;15.45;;;;;;;18.10;63.05;101200.19;4895744;28;119470;-81
2022/06/23 02:41:47;;;;;;;17.15;14.85;;;;;;;18.16;63.04;101211.34;4899868;28;119584;-81
2022/06/23 02:44:40;;;;;;;16.40;14.70;;;;;;;18.14;63.16;101211.81;4912756;28;119587;-81
2022/06/23 02:47:27;;;;;;;15.98;14.38;;;;;;;18.12;63.41;101206.00;4871589;28;121159;-81
2022/06/23 02:50:28;;;;;;;16.08;14.30;;;;;;;18.12;63.27;101211.56;4898744;28;119514;-81
2022/06/23 02:53:11;;;;;;;16.05;14.35;;;;;;;18.10;63.03;101214.06;4913119;28;119629;-81
2022/06/23 02:55:52;;;;;;;16.17;14.55;;;;;;;18.10;63.42;101202.97;4917082;28;118728;-81
2022/06/23 02:58:27;;;;;;;16.42;14.75;;;;;;;18.05;63.46;101198.88;4918332;28;119539;-81
2022/06/23 03:00:56;;;;;;;16.17;14.45;;;;;;;18.09;63.45;101207.75;4914516;28;118912;-81
2022/06/23 03:03:34;;;;;;;17.88;15.88;;;;;;;18.12;63.12;101203.22;4916699;28;119793;-81
2022/06/23 03:06:15;;;;;;;17.60;15.77;;;;;;;18.09;63.02;101207.75;4914956;28;119900;-80
2022/06/23 03:08:49;;;;;;;14.50;13.07;;;;;;;18.09;63.02;101212.53;4909792;28;121410;-80
2022/06/23 03:11:52;;;;;;;14.25;12.73;;;;;;;18.07;63.76;101204.72;4909973;28;119662;-81
2022/06/23 03:14:50;;;;;;;15.73;12.07;;;;;;;18.10;63.82;101209.28;4904501;28;119440;-80
2022/06/23 03:17:34;;;;;;;14.13;11.30;;;;;;;18.09;63.94;101207.00;4907857;28;120652;-80
2022/06/23 03:20:26;;;;;;;11.68;10.50;;;;;;;18.11;64.20;101204.47;4906539;28;120473;-81
2022/06/23 03:23:09;;;;;;;12.52;11.18;;;;;;;18.12;64.11;101210.78;4912539;28;120114;-82
2022/06/23 03:25:45;;;;;;;12.77;11.30;;;;;;;18.15;64.32;101209.81;4906828;28;119383;-81
2022/06/23 03:28:22;;;;;;;13.13;10.82;;;;;;;18.15;63.56;101209.81;4908252;28;119807;-81
2022/06/23 03:30:55;;;;;;;12.07;10.88;;;;;;;18.12;63.32;101203.22;4910072;28;119337;-82
2022/06/23 03:33:28;;;;;;;11.70;10.52;;;;;;;18.05;63.20;101196.09;4912454;28;119455;-81
2022/06/23 03:35:57;;;;;;;11.55;10.32;;;;;;;18.14;62.76;101211.06;4910743;28;120303;-81
2022/06/23 03:41:36;;;;;;;12.88;9.77;;;;;;;18.06;62.74;101213.53;4911352;28;119705;-81
2022/06/23 03:44:18;;;;;;;11.45;10.25;;;;;;;18.01;63.44;101205.91;4908710;28;120428;-81
2022/06/23 03:46:48;;;;;;;11.05;9.95;;;;;;;18.09;63.63;101220.88;4915263;28;119873;-80
2022/06/23 03:49:33;;;;;;;11.52;10.15;;;;;;;18.08;63.73;101216.56;4908557;28;119713;-81
2022/06/23 03:52:45;;;;;;;11.23;10.20;;;;;;;18.09;63.95;101220.88;4873008;28;120768;-81
2022/06/23 03:55:25;;;;;;;11.45;10.35;;;;;;;18.14;64.04;101236.81;4887790;28;119520;-81
2022/06/23 03:57:58;;;;;;;13.15;10.70;;;;;;;18.07;64.01;101226.16;4906690;28;120524;-82
2022/06/23 04:00:34;;;;;;;12.20;10.90;;;;;;;18.16;63.90;101233.56;4898198;28;119891;-81
2022/06/23 04:03:24;;;;;;;11.65;10.50;;;;;;;18.15;63.69;101237.56;4911972;28;119566;-81
2022/06/23 04:05:55;;;;;;;11.45;10.15;;;;;;;18.13;64.10;101234.53;4894603;28;119664;-81
2022/06/23 04:08:30;;;;;;;11.82;10.63;;;;;;;18.07;63.65;101229.69;4891794;28;120152;-80
2022/06/23 04:14:02;;;;;;;11.30;10.20;;;;;;;18.02;64.17;101230.41;4899920;28;120886;-82
2022/06/23 04:16:31;;;;;;;12.60;10.40;;;;;;;18.05;64.30;101234.22;4892658;28;119543;-82
2022/06/23 04:18:57;;;;;;;13.93;10.43;;;;;;;18.13;64.02;101237.31;4886523;28;121819;-80
2022/06/23 04:21:28;;;;;;;11.90;10.48;;;;;;;18.12;64.47;101233.78;4917909;28;120444;-81
2022/06/23 04:24:02;;;;;;;11.80;10.60;;;;;;;18.14;64.42;101234.03;4887457;28;119622;-81
2022/06/23 04:26:37;;;;;;;12.10;10.88;;;;;;;18.19;64.31;101238.88;4918050;28;121550;-81
2022/06/23 04:29:34;;;;;;;11.13;10.10;;;;;;;18.22;64.38;101235.16;4908479;28;119512;-81
2022/06/23 04:32:09;;;;;;;11.85;10.65;;;;;;;18.14;63.88;101220.16;4909168;28;119751;-81
2022/06/23 04:34:42;;;;;;;10.63;9.52;;;;;;;18.26;64.43;101241.25;4894089;28;123363;-81
2022/06/23 04:37:23;;;;;;;11.63;10.35;;;;;;;18.22;63.91;101232.38;4904693;28;119276;-81
2022/06/23 04:40:05;;;;;;;12.48;10.85;;;;;;;18.21;63.89;101225.25;4899392;28;119368;-81
2022/06/23 04:42:31;;;;;;;12.85;10.48;;;;;;;18.25;64.38;101228.63;4916149;28;119955;-81
2022/06/23 04:45:22;;;;;;;11.85;10.65;;;;;;;18.32;63.85;101239.28;4915107;28;119634;-81
2022/06/23 04:47:53;;;;;;;12.40;11.18;;;;;;;18.33;64.00;101249.13;4915443;28;121237;-81
2022/06/23 04:50:37;;;;;;;12.25;10.60;;;;;;;18.33;64.04;101240.03;4917158;28;119737;-81
2022/06/23 04:53:04;;;;;;;11.73;10.52;;;;;;;18.30;64.54;101235.47;4909224;28;119535;-81
2022/06/23 04:55:33;;;;;;;11.63;10.52;;;;;;;18.34;64.16;101247.13;4901722;28;119463;-81
2022/06/23 04:58:21;;;;;;;11.40;10.00;;;;;;;18.41;63.97;101246.66;4897705;28;119530;-81
2022/06/23 05:00:53;;;;;;;10.65;9.45;;;;;;;18.42;64.01;101239.84;4897741;28;120553;-81
2022/06/23 05:03:22;;;;;;;11.43;10.25;;;;;;;18.48;64.42;101239.94;4881322;28;123155;-81
2022/06/23 05:06:34;;;;;;;12.00;10.80;;;;;;;18.52;64.47;101249.56;4908298;28;119320;-81
2022/06/23 05:09:05;;;;;;;12.00;10.52;;;;;;;18.53;64.43;101253.09;4900108;28;120591;-81
2022/06/23 05:11:44;;;;;;;11.80;10.60;;;;;;;18.52;63.98;101254.34;4908173;28;119307;-81
2022/06/23 05:14:22;;;;;;;11.35;10.20;;;;;;;18.49;63.94;101272.78;4912138;28;119878;-81
2022/06/23 05:17:19;;;;;;;11.23;10.13;;;;;;;18.47;64.10;101261.38;4898452;28;119542;-81
2022/06/23 05:19:47;;;;;;;11.30;10.10;;;;;;;18.48;63.77;101276.81;4906711;28;119523;-81
2022/06/23 05:22:23;;;;;;;12.40;10.40;;;;;;;18.49;64.22;101266.44;4898643;28;119467;-81
2022/06/23 05:24:50;;;;;;;11.13;10.02;;;;;;;18.50;64.23;101271.50;4915728;28;120144;-81
2022/06/23 05:27:23;;;;;;;11.35;10.25;;;;;;;18.47;64.47;101257.84;4900102;28;119433;-81
2022/06/23 05:29:56;;;;;;;11.63;10.50;;;;;;;18.53;64.17;101267.75;4916587;28;118655;-81
2022/06/23 05:32:45;;;;;;;11.23;10.18;;;;;;;18.57;64.50;101267.53;4925258;28;119361;-81
2022/06/23 05:35:22;;;;;;;11.73;10.45;;;;;;;18.60;64.77;101267.28;4899153;28;120285;-81
2022/06/23 05:38:02;;;;;;;11.18;10.15;;;;;;;18.61;64.84;101254.94;4917755;28;119672;-81
2022/06/23 05:40:47;;;;;;;11.52;10.25;;;;;;;18.68;64.24;101264.84;4909823;28;119534;-80
2022/06/23 05:43:14;;;;;;;11.15;9.65;;;;;;;18.67;65.03;101255.00;4896661;28;119535;-81
2022/06/23 05:45:47;;;;;;;11.13;9.93;;;;;;;18.76;64.50;101263.16;4913439;28;121963;-81
2022/06/23 05:48:19;;;;;;;12.02;10.55;;;;;;;18.76;64.80;101259.63;4916609;28;119507;-81
2022/06/23 05:50:59;;;;;;;13.30;9.82;;;;;;;18.87;65.05;101273.59;4914151;28;121279;-81
2022/06/23 05:53:34;;;;;;;11.60;10.05;;;;;;;18.87;64.42;101274.38;4920421;28;119477;-81
2022/06/23 05:56:08;;;;;;;12.10;9.93;;;;;;;18.90;63.93;101265.03;4880347;28;119710;-81
2022/06/23 05:58:47;;;;;;;11.05;9.82;;;;;;;18.93;64.48;101269.63;4919205;28;119456;-81
2022/06/23 06:01:48;;;;;;;11.38;10.02;;;;;;;18.97;65.01;101272.94;4903821;28;119575;-81
2022/06/23 06:04:23;;;;;;;10.75;9.65;;;;;;;19.00;64.57;101271.19;4916560;28;119654;-81
2022/06/23 06:06:49;;;;;;;12.05;10.82;;;;;;;19.04;65.15;101279.28;4906968;28;120789;-81
2022/06/23 06:09:37;;;;;;;12.43;10.70;;;;;;;19.08;65.30;101275.03;4909521;28;119549;-81
2022/06/23 06:12:06;;;;;;;11.45;10.32;;;;;;;19.10;65.32;101266.19;4882191;28;119970;-81
2022/06/23 06:14:38;;;;;;;12.38;10.52;;;;;;;19.08;64.89;101265.91;4908230;28;120864;-81
2022/06/23 06:17:05;;;;;;;11.63;10.20;;;;;;;19.11;65.02;101270.50;4908253;28;119524;-81
2022/06/23 06:19:33;;;;;;;11.25;10.15;;;;;;;19.09;65.67;101261.88;4916592;28;119424;-81
2022/06/23 06:22:18;;;;;;;12.98;10.18;;;;;;;19.20;66.00;101267.53;4920574;28;119996;-81
2022/06/23 06:24:50;;;;;;;14.00;10.02;;;;;;;19.24;65.37;101268.06;4914238;28;120437;-81
2022/06/23 06:27:17;;;;;;;11.95;10.68;;;;;;;19.21;65.20;101263.50;4890498;28;121010;-81
2022/06/23 06:29:44;;;;;;;11.13;9.98;;;;;;;19.20;65.10;101262.72;4895673;28;120072;-81
2022/06/23 06:32:16;;;;;;;12.48;10.25;;;;;;;19.27;64.93;101278.19;4907406;28;119740;-81
2022/06/23 06:34:48;;;;;;;10.82;9.77;;;;;;;19.24;65.46;101279.19;4895563;28;119545;-81
2022/06/23 06:37:16;;;;;;;10.90;9.80;;;;;;;19.31;65.38;101281.50;4904653;28;119703;-81
2022/06/23 06:39:50;;;;;;;14.18;10.48;;;;;;;19.33;65.57;101279.72;4909461;28;119475;-81
2022/06/23 06:42:26;;;;;;;11.93;10.73;;;;;;;19.36;65.51;101275.19;4902564;28;122235;-81
2022/06/23 06:45:07;;;;;;;11.60;10.40;;;;;;;19.39;65.38;101268.63;4875153;28;120015;-81
2022/06/23 06:47:34;;;;;;;12.77;10.88;;;;;;;19.42;65.89;101258.56;4906262;28;119531;-81
2022/06/23 06:50:07;;;;;;;14.48;11.48;;;;;;;19.40;65.94;101259.06;4911741;28;120066;-81
2022/06/23 06:52:33;;;;;;;15.55;11.85;;;;;;;19.51;66.04;101270.22;4909172;28;120028;-81
2022/06/23 06:55:07;;;;;;;12.55;10.55;;;;;;;19.48;65.13;101260.09;4907721;28;119602;-81
2022/06/23 06:57:57;;;;;;;12.43;10.70;;;;;;;19.57;65.29;101265.47;4892038;28;119486;-81
2022/06/23 07:00:54;;;;;;;13.70;11.43;;;;;;;19.65;65.41;101276.91;4890323;28;120080;-81
2022/06/23 07:03:24;;;;;;;13.60;10.55;;;;;;;19.66;65.51;101269.31;4905771;28;122408;-81
2022/06/23 07:05:57;;;;;;;13.13;11.13;;;;;;;19.70;65.17;101265.03;4904725;28;119812;-81
2022/06/23 07:08:37;;;;;;;16.60;11.55;;;;;;;19.71;65.19;101261.00;4912497;28;120326;-81
2022/06/23 07:11:21;;;;;;;17.80;11.57;;;;;;;19.76;65.66;101260.25;4913682;28;119715;-81
2022/06/23 07:13:59;;;;;;;15.20;12.68;;;;;;;19.77;65.80;101253.41;4910476;28;120685;-81
2022/06/23 07:16:37;;;;;;;14.68;11.48;;;;;;;19.77;64.87;101244.31;4897253;28;119927;-81
2022/06/23 07:19:05;;;;;;;16.17;12.20;;;;;;;19.79;65.42;101258.47;4914328;28;119685;-81
2022/06/23 07:21:42;;;;;;;16.50;12.77;;;;;;;19.83;66.11;101256.97;4893910;28;120929;-81
2022/06/23 07:24:12;;;;;;;16.52;12.93;;;;;;;19.96;66.05;101262.09;4909400;28;120844;-81
2022/06/23 07:26:51;;;;;;;16.40;13.02;;;;;;;19.98;65.54;101265.13;4911224;28;119634;-81
2022/06/23 07:29:39;;;;;;;18.23;13.48;;;;;;;19.98;65.56;101261.59;4905329;28;119662;-81
2022/06/23 07:32:36;;;;;;;20.58;14.40;;;;;;;20.03;65.70;101258.81;4877105;28;122562;-81
2022/06/23 07:35:22;;;;;;;20.10;15.20;;;;;;;19.92;65.24;101242.09;4886333;28;120964;-81
2022/06/23 07:38:12;;;;;;;23.35;16.08;;;;;;;20.06;65.42;101265.41;4895138;28;120250;-81
2022/06/23 07:40:46;;;;;;;19.88;15.00;;;;;;;20.05;65.72;101261.84;4887347;28;120019;-81
2022/06/23 07:43:23;;;;;;;19.38;15.02;;;;;;;20.03;65.55;101253.25;4926932;28;120404;-81
2022/06/23 07:45:56;;;;;;;17.70;14.48;;;;;;;20.16;65.82;101267.47;4908247;28;121493;-81
2022/06/23 07:48:22;;;;;;;18.15;13.93;;;;;;;20.21;65.90;101268.72;4913499;28;119581;-81
2022/06/23 07:50:49;;;;;;;21.30;16.10;;;;;;;20.20;65.43;101256.06;4910398;28;121529;-81
2022/06/23 07:53:22;;;;;;;19.77;15.45;;;;;;;20.23;64.68;101255.81;4909943;28;120269;-81
2022/06/23 07:55:48;;;;;;;;;;;;;;;20.29;64.69;101271.78;4915332;28;119647;-81
2022/06/23 07:58:20;;;;;;;20.08;14.38;;;;;;;20.27;64.18;101257.59;4892891;28;122596;-81
2022/06/23 08:01:19;;;;;;;19.13;15.15;;;;;;;20.35;64.42;101264.22;4894096;28;119763;-81
2022/06/23 08:04:00;;;;;;;18.90;13.88;;;;;;;20.39;64.79;101278.66;4909622;28;120492;-81
2022/06/23 08:06:27;;;;;;;18.73;14.50;;;;;;;20.37;64.67;101259.66;4909121;28;119501;-81
2022/06/23 08:09:01;;;;;;;18.65;14.73;;;;;;;20.40;64.72;101269.03;4908834;28;119928;-81
2022/06/23 08:14:36;;;;;;;21.27;16.48;;;;;;;20.56;65.78;101287.03;4876095;28;120604;-81
2022/06/23 08:17:08;;;;;;;20.80;16.10;;;;;;;20.77;65.17;101277.16;4866576;28;120948;-81
2022/06/23 08:19:54;;;;;;;19.60;14.70;;;;;;;20.80;65.42;101279.69;4896608;28;119774;-81
2022/06/23 08:22:19;;;;;;;24.27;16.15;;;;;;;20.87;65.53;101274.91;4911172;28;119931;-81
2022/06/23 08:24:48;;;;;;;22.23;15.70;;;;;;;20.90;64.65;101277.44;4896969;28;119731;-81
2022/06/23 08:27:21;;;;;;;19.98;14.85;;;;;;;21.01;64.53;101271.06;4909119;28;119751;-81
2022/06/23 08:30:17;;;;;;;18.92;13.95;;;;;;;21.10;64.02;101273.59;4904403;28;119611;-81
2022/06/23 08:32:47;;;;;;;19.15;14.77;;;;;;;21.12;63.43;101273.84;4905083;28;119921;-81
2022/06/23 08:35:12;;;;;;;20.92;14.70;;;;;;;21.19;63.19;101284.47;4911124;28;120125;-82
2022/06/23 08:37:44;;;;;;;17.23;14.18;;;;;;;21.23;63.39;101278.63;4908659;28;119806;-81
2022/06/23 08:40:45;;;;;;;19.92;14.50;;;;;;;21.22;63.71;101263.94;4911348;28;119735;-81
2022/06/23 08:43:51;;;;;;;16.63;13.65;;;;;;;21.44;64.59;101275.06;4911714;28;119743;-82
2022/06/23 08:46:35;;;;;;;16.58;13.55;;;;;;;21.62;65.05;101272.97;4908281;28;120221;-81
2022/06/23 08:49:04;;;;;;;18.10;13.93;;;;;;;;;;4908791;28;122678;-82
2022/06/23 08:51:41;;;;;;;16.65;13.73;;;;;;;21.79;64.39;101265.31;4910381;28;120232;-82
2022/06/23 08:54:16;;;;;;;19.50;14.13;;;;;;;21.87;63.92;101260.69;4908072;28;120368;-82
2022/06/23 08:56:45;;;;;;;18.10;12.88;;;;;;;22.00;63.80;101262.88;4907879;28;120764;-82
2022/06/23 08:59:23;;;;;;;14.95;12.80;;;;;;;22.15;63.89;101262.59;4912902;28;120144;-81
2022/06/23 09:02:20;;;;;;;17.33;13.18;;;;;;;22.25;63.28;101267.38;4896131;28;120508;-82
2022/06/23 09:05:04;;;;;;;17.05;12.75;;;;;;;22.39;63.59;101265.47;4912631;28;120892;-82
2022/06/23 09:07:54;;;;;;;18.13;14.30;;;;;;;22.48;63.11;101258.81;4872788;28;123021;-82
2022/06/23 09:10:52;;;;;;;15.82;12.68;;;;;;;22.48;62.75;101259.59;4907721;28;121090;-81
2022/06/23 09:13:49;;;;;;;19.10;13.57;;;;;;;22.53;62.55;101255.97;4902042;28;120187;-82
2022/06/23 09:16:30;;;;;;;15.07;12.05;;;;;;;22.64;63.26;101253.06;4910190;28;121220;-82
2022/06/23 09:19:01;;;;;;;16.13;10.80;;;;;;;22.74;62.78;101249.97;4908081;28;120659;-82
2022/06/23 09:21:46;;;;;;;13.65;11.77;;;;;;;22.81;62.90;101254.97;4905677;28;121018;-81
2022/06/23 09:24:32;;;;;;;12.93;10.48;;;;;;;22.89;62.92;101251.09;4904256;28;120958;-82
2022/06/23 09:27:11;;;;;;;15.40;11.68;;;;;;;22.96;62.95;101250.56;4904673;28;121013;-82
2022/06/23 09:29:57;;;;;;;14.15;11.25;;;;;;;23.03;61.76;101242.84;4912565;28;121585;-82
2022/06/23 09:32:29;;;;;;;49.08;13.70;;;;;;;23.05;63.51;101243.84;4901751;28;122904;-82
2022/06/23 09:35:21;;;;;;;14.82;11.65;;;;;;;23.08;62.27;101239.22;4906614;28;121113;-82
2022/06/23 09:38:07;;;;;;;15.82;10.68;;;;;;;23.09;61.77;101246.34;4908209;28;121665;-82
2022/06/23 09:40:44;;;;;;;17.00;11.05;;;;;;;23.09;60.44;101246.34;4905217;28;121591;-82
2022/06/23 09:43:41;;;;;;;12.25;10.07;;;;;;;23.05;60.72;101241.03;4898734;28;120964;-81
2022/06/23 09:46:15;;;;;;;13.82;10.93;;;;;;;23.03;60.52;101246.41;4882477;28;120826;-81
2022/06/23 09:48:46;;;;;;;11.73;9.77;;;;;;;23.00;60.76;101233.47;4899291;28;121798;-81
2022/06/23 09:51:31;;;;;;;11.68;9.65;;;;;;;23.05;60.84;101238.25;4893700;28;121158;-81
2022/06/23 09:54:21;;;;;;;12.43;10.82;;;;;;;23.10;61.39;101231.81;4914400;28;121838;-81
2022/06/23 09:57:12;;;;;;;16.13;11.07;;;;;;;23.11;61.25;101240.97;4899311;28;121278;-81
2022/06/23 10:00:37;;;;;;;10.98;9.75;;;;;;;23.07;62.09;101218.13;4908545;28;121556;-81
2022/06/23 10:03:25;;;;;;;11.67;9.43;;;;;;;23.17;61.33;101222.84;4809960;28;124515;-82
2022/06/23 10:06:06;;;;;;;12.98;9.82;;;;;;;23.24;61.02;101219.47;4907706;28;121741;-82
2022/06/23 10:08:47;;;;;;;14.15;9.52;;;;;;;23.27;60.49;101217.66;4911552;28;122994;-82
2022/06/23 10:11:37;;;;;;;12.65;9.20;;;;;;;23.26;61.99;101225.28;4893625;28;123456;-82
2022/06/23 10:14:12;;;;;;;11.38;8.88;;;;;;;23.29;60.98;101215.09;4909268;28;121903;-82
2022/06/23 10:16:59;;;;;;;11.10;9.18;;;;;;;23.31;60.99;101217.34;4908868;28;121583;-82
2022/06/23 10:19:51;;;;;;;11.40;8.48;;;;;;;23.31;61.70;101209.72;4912822;28;121534;-82
2022/06/23 10:22:26;;;;;;;10.45;8.20;;;;;;;23.36;61.71;101219.31;4909520;28;122131;-81
2022/06/23 10:25:11;;;;;;;10.48;9.07;;;;;;;23.40;61.78;101214.19;4889548;28;122547;-81
2022/06/23 10:28:24;;;;;;;12.00;8.00;;;;;;;23.42;61.84;101208.81;4874410;28;122130;-82
2022/06/23 10:31:11;;;;;;;10.45;8.48;;;;;;;23.47;61.18;101208.00;4908585;28;122115;-82
2022/06/23 10:34:01;;;;;;;10.35;8.40;;;;;;;23.46;61.01;101214.91;4889305;28;124560;-82
2022/06/23 10:37:11;;;;;;;9.48;7.70;;;;;;;23.46;61.93;101212.09;4908261;28;121612;-82
2022/06/23 10:39:55;;;;;;;8.75;7.45;;;;;;;23.46;61.09;101212.09;4838723;28;121867;-82
2022/06/23 10:42:45;;;;;;;9.85;6.68;;;;;;;23.47;60.97;101205.22;4902691;28;121776;-81
2022/06/23 10:45:27;;;;;;;10.50;8.10;;;;;;;23.48;60.81;101204.69;4909643;28;121653;-82
2022/06/23 10:48:20;;;;;;;9.95;7.32;;;;;;;23.50;59.84;101206.94;4906443;28;121889;-82
2022/06/23 10:51:02;;;;;;;8.88;6.40;;;;;;;23.52;60.83;101207.16;4899506;28;121730;-81
2022/06/23 10:54:04;;;;;;;11.10;7.30;;;;;;;23.53;60.81;101201.03;4907992;28;121856;-81
2022/06/23 10:56:42;;;;;;;9.70;7.45;;;;;;;23.55;61.38;101203.31;4880177;28;124505;-82
2022/06/23 10:59:35;;;;;;;12.23;6.75;;;;;;;23.55;59.69;101200.50;4908879;28;122090;-82
2022/06/23 11:02:34;;;;;;;8.23;6.87;;;;;;;23.56;60.13;101197.22;4907893;28;122055;-82
2022/06/23 11:05:03;;;;;;;8.20;5.30;;;;;;;23.56;60.46;101193.66;4906491;28;122437;-82
2022/06/23 11:07:52;;;;;;;7.53;5.80;;;;;;;23.52;60.61;101179.19;4913958;28;121748;-81
2022/06/23 11:10:39;;;;;;;7.93;5.30;;;;;;;23.61;60.23;101195.63;4875845;28;123987;-82
2022/06/23 11:13:11;;;;;;;9.07;6.80;;;;;;;23.63;60.15;101184.63;4907757;28;121993;-82
2022/06/23 11:16:00;;;;;;;8.52;5.93;;;;;;;23.64;60.45;101177.75;4909088;28;123244;-82
2022/06/23 11:19:03;;;;;;;8.18;6.72;;;;;;;23.67;60.45;101179.53;4894549;28;123758;-82
2022/06/23 11:21:37;;;;;;;8.73;7.47;;;;;;;23.68;60.32;101178.22;4910970;28;122098;-82
2022/06/23 11:24:16;;;;;;;7.57;6.50;;;;;;;23.69;59.79;101182.53;4893639;28;124059;-82
2022/06/23 11:27:03;;;;;;;8.05;5.90;;;;;;;23.71;59.62;101174.38;4895968;28;122434;-82
2022/06/23 11:30:10;;;;;;;9.77;7.07;;;;;;;23.70;59.70;101169.28;4876444;28;121874;-82
2022/06/23 11:32:58;;;;;;;9.98;6.53;;;;;;;23.65;59.94;101173.66;4895471;28;123809;-82
2022/06/23 11:35:42;;;;;;;7.32;6.10;;;;;;;23.75;60.02;101180.41;4909224;28;122701;-82
2022/06/23 11:38:32;;;;;;;9.50;6.47;;;;;;;23.77;60.67;101179.88;4881048;28;121635;-82
2022/06/23 11:41:04;;;;;;;9.45;6.40;;;;;;;23.75;60.05;101169.22;4911001;28;121694;-82
2022/06/23 11:44:03;;;;;;;8.52;5.82;;;;;;;23.79;59.73;101166.84;4911569;28;122288;-81
2022/06/23 11:46:44;;;;;;;9.32;7.05;;;;;;;23.81;59.69;101169.13;4909341;28;121704;-82
2022/06/23 11:49:16;;;;;;;10.40;7.28;;;;;;;23.85;60.46;101169.56;4907211;28;121949;-82
2022/06/23 11:52:01;;;;;;;9.10;7.20;;;;;;;23.89;59.64;101176.38;4868454;28;122267;-82
2022/06/23 11:54:29;;;;;;;10.30;7.32;;;;;;;23.91;59.81;101172.31;4897090;28;123230;-82
2022/06/23 11:57:03;;;;;;;10.65;8.50;;;;;;;23.88;59.56;101169.25;4905996;28;121843;-82
2022/06/23 11:59:52;;;;;;;9.10;7.43;;;;;;;23.89;59.67;101167.97;4876899;28;121591;-82
2022/06/23 12:02:18;;;;;;;10.35;8.00;;;;;;;23.85;60.07;101159.13;4900708;28;122183;-82
2022/06/23 12:05:25;;;;;;;9.70;8.32;;;;;;;23.89;59.85;101158.81;4898512;28;121568;-82
2022/06/23 12:08:06;;;;;;;8.38;7.53;;;;;;;23.89;59.64;101162.34;4820434;29;122056;-82
2022/06/23 12:10:34;;;;;;;12.23;8.30;;;;;;;23.84;60.27;101154.81;4821224;29;121748;-82
2022/06/23 12:13:02;;;;;;;12.20;8.85;;;;;;;23.91;59.47;101158.28;4864024;28;121865;-82
2022/06/23 12:15:34;;;;;;;9.60;7.25;;;;;;;23.92;59.23;101154.97;4914149;28;121650;-82